createdAt,value
2018-05-18T00:01:01.093Z,9.70
2018-05-18T00:03:28.618Z,9.70
2018-05-18T00:05:56.107Z,9.70
2018-05-18T00:08:23.611Z,9.70
2018-05-18T00:10:51.119Z,9.70
2018-05-18T00:13:18.633Z,9.70
2018-05-18T00:15:46.133Z,9.70
2018-05-18T00:18:13.651Z,9.70
2018-05-18T00:20:41.153Z,9.70
2018-05-18T00:23:09.096Z,9.60
2018-05-18T00:25:36.596Z,9.60
2018-05-18T00:28:04.524Z,9.60
2018-05-18T00:30:32.010Z,9.60
2018-05-18T00:32:59.519Z,9.60
2018-05-18T00:35:27.039Z,9.60
2018-05-18T00:37:54.939Z,9.50
2018-05-18T00:40:22.460Z,9.60
2018-05-18T00:42:50.365Z,9.50
2018-05-18T00:45:17.888Z,9.50
2018-05-18T00:47:45.824Z,9.40
2018-05-18T00:50:13.309Z,9.40
2018-05-18T00:52:41.221Z,9.40
2018-05-18T00:55:20.813Z,9.40
2018-05-18T00:57:48.709Z,9.40
2018-05-18T01:00:16.229Z,9.40
2018-05-18T01:02:43.728Z,9.40
2018-05-18T01:05:11.225Z,9.40
2018-05-18T01:07:38.729Z,9.40
2018-05-18T01:10:06.262Z,9.40
2018-05-18T01:12:34.170Z,9.40
2018-05-18T01:15:01.685Z,9.40
2018-05-18T01:17:29.244Z,9.40
2018-05-18T01:19:57.152Z,9.30
2018-05-18T01:22:24.687Z,9.40
2018-05-18T01:24:52.199Z,9.30
2018-05-18T01:27:19.704Z,9.30
2018-05-18T01:29:47.190Z,9.30
2018-05-18T01:32:14.679Z,9.30
2018-05-18T01:34:42.212Z,9.30
2018-05-18T01:37:09.702Z,9.30
2018-05-18T01:39:37.209Z,9.30
2018-05-18T01:42:04.752Z,9.30
2018-05-18T01:44:32.252Z,9.30
2018-05-18T01:46:59.765Z,9.30
2018-05-18T01:49:27.339Z,9.30
2018-05-18T01:51:54.845Z,9.20
2018-05-18T01:54:22.347Z,9.20
2018-05-18T01:56:49.846Z,9.20
2018-05-18T01:59:17.373Z,9.20
2018-05-18T02:01:44.881Z,9.20
2018-05-18T02:04:12.386Z,9.20
2018-05-18T02:06:39.905Z,9.20
2018-05-18T02:09:07.808Z,9.20
2018-05-18T02:11:35.322Z,9.20
2018-05-18T02:14:02.832Z,9.20
2018-05-18T02:16:30.355Z,9.20
2018-05-18T02:18:58.272Z,9.10
2018-05-18T02:21:25.782Z,9.10
2018-05-18T02:23:53.681Z,9.10
2018-05-18T02:26:21.203Z,9.10
2018-05-18T02:28:49.102Z,9.00
2018-05-18T02:31:16.595Z,9.00
2018-05-18T02:33:44.087Z,9.00
2018-05-18T02:36:11.985Z,9.00
2018-05-18T02:38:39.505Z,9.00
2018-05-18T02:41:07.380Z,9.00
2018-05-18T02:43:34.873Z,8.90
2018-05-18T02:46:02.372Z,9.00
2018-05-18T02:48:29.882Z,9.00
2018-05-18T02:50:57.387Z,8.90
2018-05-18T02:53:24.865Z,8.90
2018-05-18T02:55:52.747Z,8.90
2018-05-18T02:58:20.242Z,8.90
2018-05-18T03:00:47.761Z,8.90
2018-05-18T03:03:15.288Z,8.90
2018-05-18T03:05:43.196Z,8.90
2018-05-18T03:08:10.705Z,8.90
2018-05-18T03:10:38.217Z,8.90
2018-05-18T03:13:05.689Z,8.90
2018-05-18T03:15:33.185Z,8.90
2018-05-18T03:18:01.067Z,8.90
2018-05-18T03:20:28.559Z,8.90
2018-05-18T03:22:56.070Z,8.90
2018-05-18T03:25:23.578Z,8.90
2018-05-18T03:27:51.079Z,8.90
2018-05-18T03:30:19.009Z,8.90
2018-05-18T03:32:46.513Z,8.90
2018-05-18T03:35:14.470Z,8.80
2018-05-18T03:37:42.369Z,8.80
2018-05-18T03:40:09.869Z,8.80
2018-05-18T03:42:37.380Z,8.80
2018-05-18T03:45:04.880Z,8.70
2018-05-18T03:47:32.396Z,8.70
2018-05-18T03:49:59.897Z,8.60
2018-05-18T03:52:27.401Z,8.60
2018-05-18T03:54:55.274Z,8.50
2018-05-18T03:57:22.777Z,8.50
2018-05-18T03:59:50.294Z,8.50
2018-05-18T04:02:29.717Z,8.50
2018-05-18T04:05:09.018Z,8.50
2018-05-18T04:10:44.544Z,8.50
2018-05-18T04:13:12.069Z,8.50
2018-05-18T04:15:39.948Z,8.50
2018-05-18T04:18:07.462Z,8.50
2018-05-18T04:20:34.973Z,8.50
2018-05-18T04:23:02.479Z,8.50
2018-05-18T04:25:29.988Z,8.50
2018-05-18T04:27:57.485Z,8.50
2018-05-18T04:30:25.031Z,8.50
2018-05-18T04:32:52.520Z,8.50
2018-05-18T04:35:20.041Z,8.40
2018-05-18T04:37:47.521Z,8.40
2018-05-18T04:40:15.010Z,8.40
2018-05-18T04:42:42.929Z,8.40
2018-05-18T04:45:10.450Z,8.40
2018-05-18T04:47:37.952Z,8.40
2018-05-18T04:50:05.462Z,8.40
2018-05-18T04:52:32.974Z,8.40
2018-05-18T04:55:00.470Z,8.40
2018-05-18T04:57:27.988Z,8.40
2018-05-18T04:59:55.494Z,8.40
2018-05-18T05:02:22.993Z,8.40
2018-05-18T05:04:50.499Z,8.40
2018-05-18T05:07:18.388Z,8.50
2018-05-18T05:09:45.877Z,8.50
2018-05-18T05:12:13.417Z,8.50
2018-05-18T05:14:40.910Z,8.60
2018-05-18T05:17:08.407Z,8.60
2018-05-18T05:19:35.928Z,8.70
2018-05-18T05:22:03.886Z,8.70
2018-05-18T05:24:31.628Z,8.70
2018-05-18T05:26:59.199Z,8.70
2018-05-18T05:29:26.735Z,8.70
2018-05-18T05:31:54.270Z,8.80
2018-05-18T05:34:21.814Z,8.80
2018-05-18T05:36:49.404Z,8.80
2018-05-18T05:39:16.923Z,8.90
2018-05-18T05:41:44.457Z,8.80
2018-05-18T05:44:11.950Z,8.80
2018-05-18T05:46:39.468Z,8.80
2018-05-18T05:49:07.016Z,8.80
2018-05-18T05:51:34.569Z,8.90
2018-05-18T05:54:02.854Z,8.90
2018-05-18T05:56:30.412Z,9.00
2018-05-18T05:58:57.980Z,9.00
2018-05-18T06:01:25.517Z,9.10
2018-05-18T06:03:53.037Z,9.10
2018-05-18T06:06:20.569Z,9.10
2018-05-18T06:08:48.226Z,9.20
2018-05-18T06:11:15.710Z,9.10
2018-05-18T06:13:43.248Z,9.10
2018-05-18T06:16:11.152Z,9.20
2018-05-18T06:18:38.649Z,9.20
2018-05-18T06:21:06.887Z,9.30
2018-05-18T06:23:34.393Z,9.20
2018-05-18T06:26:01.901Z,9.30
2018-05-18T06:28:29.413Z,9.30
2018-05-18T06:30:56.909Z,9.30
2018-05-18T06:33:24.409Z,9.30
2018-05-18T06:35:51.901Z,9.40
2018-05-18T06:38:19.782Z,9.50
2018-05-18T06:40:47.305Z,9.50
2018-05-18T06:43:14.803Z,9.40
2018-05-18T06:45:42.357Z,9.50
2018-05-18T06:48:09.944Z,9.50
2018-05-18T06:50:37.492Z,9.60
2018-05-18T06:53:04.994Z,9.70
2018-05-18T06:55:32.899Z,9.90
2018-05-18T06:58:00.444Z,9.90
2018-05-18T07:00:27.956Z,10.00
2018-05-18T07:02:55.943Z,10.00
2018-05-18T07:05:23.512Z,10.00
2018-05-18T07:07:51.472Z,10.10
2018-05-18T07:10:18.998Z,10.10
2018-05-18T07:12:46.549Z,10.20
2018-05-18T07:15:14.797Z,10.20
2018-05-18T07:17:42.341Z,10.30
2018-05-18T07:20:09.926Z,10.30
2018-05-18T07:22:37.457Z,10.40
2018-05-18T07:25:05.409Z,10.30
2018-05-18T07:27:32.912Z,10.30
2018-05-18T07:30:01.368Z,10.40
2018-05-18T07:32:28.841Z,10.50
2018-05-18T07:34:56.455Z,10.60
2018-05-18T07:37:24.545Z,10.60
2018-05-18T07:39:52.459Z,10.90
2018-05-18T07:42:20.133Z,10.90
2018-05-18T07:44:47.662Z,11.00
2018-05-18T07:47:15.207Z,11.10
2018-05-18T07:49:42.745Z,11.00
2018-05-18T07:52:10.688Z,11.10
2018-05-18T07:54:38.196Z,11.10
2018-05-18T07:57:05.724Z,11.20
2018-05-18T07:59:33.648Z,11.20
2018-05-18T08:02:01.140Z,11.20
2018-05-18T08:04:28.831Z,11.30
2018-05-18T08:06:56.390Z,11.40
2018-05-18T08:09:24.030Z,11.60
2018-05-18T08:11:51.942Z,12.30
2018-05-18T08:14:19.463Z,12.30
2018-05-18T08:16:47.443Z,12.30
2018-05-18T08:19:15.362Z,12.40
2018-05-18T08:21:42.927Z,12.40
2018-05-18T08:24:10.483Z,12.50
2018-05-18T08:26:38.111Z,12.50
2018-05-18T08:29:17.549Z,12.30
2018-05-18T08:31:45.054Z,12.00
2018-05-18T08:34:12.542Z,12.20
2018-05-18T08:36:40.066Z,12.10
2018-05-18T08:39:07.715Z,12.20
2018-05-18T08:41:35.180Z,12.20
2018-05-18T08:44:03.120Z,12.40
2018-05-18T08:46:30.693Z,12.40
2018-05-18T08:48:58.194Z,12.50
2018-05-18T08:51:26.197Z,12.90
2018-05-18T08:53:53.781Z,12.90
2018-05-18T08:56:21.420Z,13.10
2018-05-18T08:58:49.054Z,13.20
2018-05-18T09:01:16.717Z,13.10
2018-05-18T09:03:44.333Z,13.20
2018-05-18T09:06:11.959Z,13.00
2018-05-18T09:08:39.599Z,13.10
2018-05-18T09:11:07.210Z,12.80
2018-05-18T09:13:34.868Z,12.60
2018-05-18T09:16:02.495Z,12.80
2018-05-18T09:18:30.091Z,12.70
2018-05-18T09:20:57.730Z,12.90
2018-05-18T09:23:25.784Z,13.00
2018-05-18T09:25:53.321Z,13.00
2018-05-18T09:28:21.629Z,13.10
2018-05-18T09:30:49.142Z,13.20
2018-05-18T09:33:17.055Z,13.50
2018-05-18T09:35:44.573Z,13.50
2018-05-18T09:38:12.473Z,14.10
2018-05-18T09:40:39.955Z,14.10
2018-05-18T09:43:07.472Z,14.40
2018-05-18T09:45:34.970Z,14.60
2018-05-18T09:48:03.261Z,14.60
2018-05-18T09:50:30.765Z,14.70
2018-05-18T09:52:58.364Z,14.50
2018-05-18T09:55:25.993Z,14.40
2018-05-18T09:57:54.132Z,14.40
2018-05-18T10:00:22.017Z,14.40
2018-05-18T10:02:49.614Z,14.40
2018-05-18T10:05:17.148Z,14.10
2018-05-18T10:07:44.649Z,14.20
2018-05-18T10:10:12.226Z,14.10
2018-05-18T10:12:40.131Z,14.10
2018-05-18T10:15:07.704Z,14.10
2018-05-18T10:17:35.238Z,14.00
2018-05-18T10:20:02.826Z,14.00
2018-05-18T10:22:30.322Z,13.50
2018-05-18T10:24:57.864Z,13.10
2018-05-18T10:27:25.397Z,13.30
2018-05-18T10:29:53.716Z,13.70
2018-05-18T10:32:21.661Z,15.10
2018-05-18T10:34:49.172Z,15.10
2018-05-18T10:37:16.739Z,15.40
2018-05-18T10:39:44.903Z,15.60
2018-05-18T10:42:12.328Z,15.60
2018-05-18T10:44:41.817Z,16.30
2018-05-18T10:47:09.743Z,16.80
2018-05-18T10:49:37.258Z,16.80
2018-05-18T10:52:05.713Z,16.50
2018-05-18T10:54:34.034Z,16.50
2018-05-18T10:57:01.593Z,16.40
2018-05-18T10:59:29.218Z,16.70
2018-05-18T11:01:56.924Z,16.70
2018-05-18T11:04:24.448Z,16.90
2018-05-18T11:06:54.056Z,16.60
2018-05-18T11:09:22.187Z,16.60
2018-05-18T11:11:49.854Z,16.80
2018-05-18T11:14:18.882Z,17.00
2018-05-18T11:16:46.518Z,17.30
2018-05-18T11:19:14.953Z,17.30
2018-05-18T11:21:42.476Z,17.30
2018-05-18T11:24:10.063Z,17.40
2018-05-18T11:26:37.694Z,17.40
2018-05-18T11:29:05.776Z,17.40
2018-05-18T11:31:33.673Z,17.30
2018-05-18T11:34:01.196Z,17.30
2018-05-18T11:36:29.515Z,17.40
2018-05-18T11:38:57.591Z,17.90
2018-05-18T11:41:26.162Z,18.20
2018-05-18T11:43:53.685Z,18.30
2018-05-18T11:46:22.253Z,17.60
2018-05-18T11:48:49.759Z,17.60
2018-05-18T11:51:18.768Z,17.60
2018-05-18T11:53:47.717Z,17.90
2018-05-18T11:56:15.357Z,18.60
2018-05-18T11:58:43.744Z,18.70
2018-05-18T12:01:11.271Z,19.20
2018-05-18T12:03:38.784Z,19.20
2018-05-18T12:06:06.361Z,19.30
2018-05-18T12:08:33.964Z,19.50
2018-05-18T12:11:01.518Z,19.80
2018-05-18T12:13:29.054Z,19.50
2018-05-18T12:15:56.589Z,19.70
2018-05-18T12:18:24.100Z,19.90
2018-05-18T12:20:54.600Z,20.70
2018-05-18T12:23:22.207Z,21.30
2018-05-18T12:25:50.220Z,21.20
2018-05-18T12:28:17.715Z,21.20
2018-05-18T12:30:46.253Z,21.30
2018-05-18T12:33:13.905Z,21.20
2018-05-18T12:35:41.556Z,21.30
2018-05-18T12:38:09.191Z,21.30
2018-05-18T12:40:37.009Z,21.30
2018-05-18T12:43:05.040Z,21.30
2018-05-18T12:45:32.565Z,20.90
2018-05-18T12:48:01.060Z,20.70
2018-05-18T12:50:28.583Z,20.50
2018-05-18T12:52:56.101Z,20.80
2018-05-18T12:55:23.738Z,21.00
2018-05-18T12:57:51.277Z,20.70
2018-05-18T13:00:18.797Z,20.60
2018-05-18T13:02:46.294Z,20.30
2018-05-18T13:05:13.784Z,20.40
2018-05-18T13:07:41.704Z,20.70
2018-05-18T13:10:09.198Z,20.70
2018-05-18T13:12:37.202Z,21.50
2018-05-18T13:15:04.795Z,21.50
2018-05-18T13:17:33.135Z,21.70
2018-05-18T13:20:00.666Z,22.00
2018-05-18T13:22:28.809Z,22.50
2018-05-18T13:24:56.413Z,22.40
2018-05-18T13:27:25.472Z,22.60
2018-05-18T13:29:53.141Z,22.50
2018-05-18T13:32:20.644Z,22.50
2018-05-18T13:34:48.149Z,22.40
2018-05-18T13:37:15.753Z,22.90
2018-05-18T13:39:43.649Z,22.80
2018-05-18T13:42:11.864Z,23.00
2018-05-18T13:44:40.890Z,23.50
2018-05-18T13:47:09.534Z,23.50
2018-05-18T13:49:37.794Z,23.30
2018-05-18T13:52:06.099Z,23.00
2018-05-18T13:54:34.029Z,22.70
2018-05-18T13:57:01.679Z,22.70
2018-05-18T13:59:30.168Z,22.20
2018-05-18T14:01:58.962Z,22.40
2018-05-18T14:04:26.455Z,22.60
2018-05-18T14:06:54.361Z,22.70
2018-05-18T14:09:21.887Z,22.60
2018-05-18T14:11:49.424Z,22.50
2018-05-18T14:14:17.309Z,22.30
2018-05-18T14:16:44.846Z,22.30
2018-05-18T14:19:12.379Z,22.10
2018-05-18T14:21:39.866Z,22.00
2018-05-18T14:24:07.780Z,21.90
2018-05-18T14:26:35.295Z,21.90
2018-05-18T14:29:03.238Z,22.00
2018-05-18T14:31:31.437Z,22.00
2018-05-18T14:33:58.984Z,21.90
2018-05-18T14:36:26.837Z,22.00
2018-05-18T14:38:55.035Z,22.30
2018-05-18T14:41:22.933Z,22.90
2018-05-18T14:43:50.457Z,22.90
2018-05-18T14:46:17.916Z,23.10
2018-05-18T14:48:45.860Z,23.50
2018-05-18T14:51:13.848Z,23.70
2018-05-18T14:53:41.316Z,23.70
2018-05-18T14:56:09.220Z,23.00
2018-05-18T14:58:36.813Z,23.00
2018-05-18T15:01:04.368Z,22.90
2018-05-18T15:03:32.077Z,23.50
2018-05-18T15:05:59.613Z,22.40
2018-05-18T15:08:27.520Z,23.20
2018-05-18T15:11:00.704Z,23.30
2018-05-18T15:13:28.632Z,23.50
2018-05-18T15:15:56.219Z,23.30
2018-05-18T15:18:23.705Z,23.70
2018-05-18T15:20:51.242Z,23.60
2018-05-18T15:23:19.015Z,23.40
2018-05-18T15:25:46.604Z,23.20
2018-05-18T15:28:14.273Z,23.00
2018-05-18T15:30:41.825Z,23.30
2018-05-18T15:33:09.361Z,23.20
2018-05-18T15:35:36.849Z,22.90
2018-05-18T15:38:04.381Z,22.50
2018-05-18T15:40:31.904Z,22.20
2018-05-18T15:42:59.448Z,21.90
2018-05-18T15:45:26.949Z,21.60
2018-05-18T15:47:55.447Z,21.30
2018-05-18T15:50:24.429Z,21.00
2018-05-18T15:52:51.982Z,21.00
2018-05-18T15:55:19.518Z,20.90
2018-05-18T15:57:47.038Z,20.70
2018-05-18T16:00:15.650Z,20.50
2018-05-18T16:02:43.169Z,20.30
2018-05-18T16:05:11.095Z,20.30
2018-05-18T16:07:38.681Z,20.30
2018-05-18T16:10:06.275Z,20.10
2018-05-18T16:12:34.509Z,19.60
2018-05-18T16:15:01.997Z,19.60
2018-05-18T16:17:29.903Z,19.30
2018-05-18T16:19:57.439Z,19.30
2018-05-18T16:22:24.926Z,19.30
2018-05-18T16:24:52.433Z,19.00
2018-05-18T16:27:20.337Z,19.00
2018-05-18T16:29:48.181Z,19.00
2018-05-18T16:32:15.750Z,19.10
2018-05-18T16:34:43.304Z,19.10
2018-05-18T16:37:10.815Z,19.20
2018-05-18T16:39:38.394Z,19.10
2018-05-18T16:42:06.321Z,18.90
2018-05-18T16:44:33.848Z,18.90
2018-05-18T16:47:01.745Z,18.50
2018-05-18T16:49:29.878Z,18.50
2018-05-18T16:51:59.247Z,18.50
2018-05-18T16:54:27.100Z,18.50
2018-05-18T16:56:54.741Z,18.40
2018-05-18T16:59:22.273Z,18.40
2018-05-18T17:01:49.825Z,18.30
2018-05-18T17:04:17.381Z,18.30
2018-05-18T17:06:45.312Z,18.20
2018-05-18T17:09:12.864Z,18.20
2018-05-18T17:11:40.388Z,18.20
2018-05-18T17:14:07.918Z,18.00
2018-05-18T17:16:35.830Z,17.60
2018-05-18T17:19:04.008Z,17.60
2018-05-18T17:21:33.553Z,17.30
2018-05-18T17:24:02.665Z,17.30
2018-05-18T17:26:31.805Z,17.20
2018-05-18T17:28:59.361Z,17.10
2018-05-18T17:31:26.996Z,17.00
2018-05-18T17:33:54.488Z,17.00
2018-05-18T17:36:22.044Z,16.90
2018-05-18T17:38:49.542Z,16.90
2018-05-18T17:41:17.444Z,16.70
2018-05-18T17:43:44.997Z,16.70
2018-05-18T17:46:12.557Z,16.60
2018-05-18T17:48:40.139Z,16.50
2018-05-18T17:51:07.696Z,16.40
2018-05-18T17:53:35.287Z,16.40
2018-05-18T17:56:03.579Z,16.20
2018-05-18T17:58:31.473Z,16.10
2018-05-18T18:00:58.976Z,16.10
2018-05-18T18:03:26.521Z,16.00
2018-05-18T18:05:54.220Z,15.90
2018-05-18T18:08:21.786Z,15.80
2018-05-18T18:10:49.565Z,15.60
2018-05-18T18:13:17.479Z,15.50
2018-05-18T18:15:45.433Z,15.50
2018-05-18T18:18:13.183Z,15.40
2018-05-18T18:20:40.953Z,15.30
2018-05-18T18:23:08.582Z,15.20
2018-05-18T18:25:36.474Z,15.00
2018-05-18T18:28:04.081Z,15.00
2018-05-18T18:30:31.692Z,15.00
2018-05-18T18:32:59.278Z,14.90
2018-05-18T18:35:26.936Z,14.80
2018-05-18T18:37:54.811Z,14.70
2018-05-18T18:40:22.310Z,14.60
2018-05-18T18:42:50.223Z,14.40
2018-05-18T18:45:19.603Z,14.40
2018-05-18T18:47:48.990Z,14.30
2018-05-18T18:50:16.634Z,14.20
2018-05-18T18:52:44.140Z,14.10
2018-05-18T18:55:11.664Z,14.00
2018-05-18T18:57:39.172Z,14.00
2018-05-18T19:00:06.738Z,13.80
2018-05-18T19:02:34.234Z,13.80
2018-05-18T19:05:01.738Z,13.60
2018-05-18T19:07:29.278Z,13.60
2018-05-18T19:09:56.797Z,13.50
2018-05-18T19:12:24.437Z,13.50
2018-05-18T19:14:52.358Z,13.30
2018-05-18T19:17:19.865Z,13.30
2018-05-18T19:19:47.368Z,13.20
2018-05-18T19:22:14.878Z,13.10
2018-05-18T19:24:42.369Z,13.10
2018-05-18T19:27:09.899Z,13.00
2018-05-18T19:29:37.410Z,12.90
2018-05-18T19:32:04.907Z,12.90
2018-05-18T19:34:32.400Z,12.80
2018-05-18T19:37:00.002Z,12.70
2018-05-18T19:39:27.525Z,12.70
2018-05-18T19:41:56.201Z,12.60
2018-05-18T19:44:23.748Z,12.50
2018-05-18T19:46:51.702Z,12.40
2018-05-18T19:49:19.635Z,12.30
2018-05-18T19:51:47.224Z,12.30
2018-05-18T19:54:14.702Z,12.20
2018-05-18T19:56:42.597Z,12.10
2018-05-18T19:59:10.232Z,12.10
2018-05-18T20:01:39.470Z,12.00
2018-05-18T20:04:07.636Z,12.00
2018-05-18T20:06:35.200Z,12.00
2018-05-18T20:09:02.912Z,11.90
2018-05-18T20:11:31.475Z,11.70
2018-05-18T20:13:59.435Z,11.70
2018-05-18T20:16:27.180Z,11.70
2018-05-18T20:18:59.118Z,11.60
2018-05-18T20:21:26.710Z,11.50
2018-05-18T20:23:54.512Z,11.50
2018-05-18T20:26:22.425Z,11.40
2018-05-18T20:28:51.160Z,11.40
2018-05-18T20:31:20.963Z,11.30
2018-05-18T20:33:48.897Z,11.20
2018-05-18T20:36:35.275Z,11.20
2018-05-18T20:39:02.818Z,11.20
2018-05-18T20:41:31.314Z,11.10
2018-05-18T20:43:59.780Z,11.00
2018-05-18T20:46:27.353Z,11.00
2018-05-18T20:48:55.812Z,10.90
2018-05-18T20:51:23.712Z,10.80
2018-05-18T20:53:53.152Z,10.80
2018-05-18T20:56:20.637Z,10.80
2018-05-18T20:58:48.550Z,10.70
2018-05-18T21:01:16.163Z,10.70
2018-05-18T21:03:43.721Z,10.60
2018-05-18T21:06:11.216Z,10.60
2018-05-18T21:08:38.822Z,10.60
2018-05-18T21:11:06.807Z,10.50
2018-05-18T21:13:34.745Z,10.40
2018-05-18T21:16:02.290Z,10.40
2018-05-18T21:18:29.813Z,10.30
2018-05-18T21:20:57.355Z,10.30
2018-05-18T21:23:24.897Z,10.20
2018-05-18T21:25:52.818Z,10.20
2018-05-18T21:28:21.339Z,10.20
2018-05-18T21:30:49.254Z,10.10
2018-05-18T21:33:17.452Z,10.10
2018-05-18T21:35:44.960Z,10.10
2018-05-18T21:38:13.003Z,10.10
2018-05-18T21:40:41.471Z,10.00
2018-05-18T21:43:09.089Z,10.00
2018-05-18T21:45:37.488Z,10.10
2018-05-18T21:48:05.001Z,10.10
2018-05-18T21:50:33.351Z,10.10
2018-05-18T21:53:00.977Z,10.10
2018-05-18T21:55:28.492Z,10.10
2018-05-18T21:57:55.997Z,10.20
2018-05-18T22:00:23.537Z,10.10
2018-05-18T22:02:51.911Z,10.10
2018-05-18T22:05:19.444Z,10.10
2018-05-18T22:07:47.329Z,10.10
2018-05-18T22:10:14.844Z,10.10
2018-05-18T22:12:42.375Z,10.10
2018-05-18T22:15:09.889Z,10.00
2018-05-18T22:17:37.848Z,10.00
2018-05-18T22:20:05.428Z,10.00
2018-05-18T22:22:33.057Z,10.00
2018-05-18T22:25:00.615Z,10.00
2018-05-18T22:27:28.530Z,9.90
2018-05-18T22:29:56.170Z,9.90
2018-05-18T22:32:23.702Z,9.90
2018-05-18T22:34:51.664Z,9.90
2018-05-18T22:37:19.215Z,9.90
2018-05-18T22:39:46.697Z,9.80
2018-05-18T22:42:15.790Z,9.80
2018-05-18T22:44:43.746Z,9.70
2018-05-18T22:47:11.229Z,9.70
2018-05-18T22:49:38.743Z,9.70
2018-05-18T22:52:06.240Z,9.60
2018-05-18T22:54:33.717Z,9.50
2018-05-18T22:57:01.205Z,9.50
2018-05-18T22:59:28.690Z,9.40
2018-05-18T23:01:56.579Z,9.30
2018-05-18T23:04:24.075Z,9.30
2018-05-18T23:06:51.579Z,9.30
2018-05-18T23:09:19.471Z,9.20
2018-05-18T23:11:46.941Z,9.20
2018-05-18T23:14:14.456Z,9.10
2018-05-18T23:16:42.337Z,9.00
2018-05-18T23:19:09.835Z,9.00
2018-05-18T23:21:37.326Z,8.90
2018-05-18T23:24:04.809Z,8.80
2018-05-18T23:26:32.316Z,8.70
2018-05-18T23:28:59.809Z,8.70
2018-05-18T23:31:27.728Z,8.60
2018-05-18T23:33:55.209Z,8.50
2018-05-18T23:36:22.689Z,8.50
2018-05-18T23:38:50.580Z,8.40
2018-05-18T23:41:18.072Z,8.40
2018-05-18T23:43:45.571Z,8.40
2018-05-18T23:46:13.462Z,8.30
2018-05-18T23:48:40.957Z,8.30
2018-05-18T23:51:08.452Z,8.20
2018-05-18T23:53:36.362Z,8.10
2018-05-18T23:56:03.849Z,8.10
2018-05-18T23:58:31.346Z,8.10
